Time;durP1;ratioP1;P1;durP2;ratioP2;P2;SDS_P1;SDS_P2;PMS_P1;PMS_P2;Temp;Humidity;BMP_temperature;BMP_pressure;BME280_temperature;BME280_humidity;BME280_pressure;Samples;Min_cycle;Max_cycle;Signal;HPM_P1;HPM_P2
2023/06/08 07:14:07;;;;;;;4.53;3.70;;;;;;;;;;4452698;28;20767;-66
2023/06/08 07:16:51;;;;;;;5.23;3.43;;;;;;;;;;5009419;28;20712;-64
2023/06/08 07:19:17;;;;;;;6.73;3.40;;;;;;;;;;5018176;28;20207;-64
2023/06/08 07:21:44;;;;;;;7.97;3.40;;;;;;;;;;5011399;28;20272;-65
2023/06/08 07:24:20;;;;;;;4.93;3.30;;;;;;;;;;5010876;28;20196;-65
2023/06/08 07:27:06;;;;;;;7.03;3.40;;;;;;;;;;5027987;28;20187;-66
2023/06/08 07:29:33;;;;;;;4.47;3.60;;;;;;;;;;5003904;28;20196;-64
2023/06/08 07:32:00;;;;;;;4.83;3.43;;;;;;;;;;4993048;28;20250;-64
2023/06/08 07:34:27;;;;;;;8.10;3.90;;;;;;;;;;4992797;28;20188;-64
2023/06/08 07:36:55;;;;;;;4.53;3.67;;;;;;;;;;5013186;28;20271;-64
2023/06/08 07:39:23;;;;;;;5.70;4.00;;;;;;;;;;5003192;28;20319;-63
2023/06/08 07:41:50;;;;;;;5.53;3.80;;;;;;;;;;4995755;28;20192;-64
2023/06/08 07:44:16;;;;;;;6.00;3.80;;;;;;;;;;4996173;28;20733;-64
2023/06/08 07:47:00;;;;;;;8.17;4.03;;;;;;;;;;5012966;28;20175;-63
2023/06/08 07:49:28;;;;;;;5.20;3.60;;;;;;;;;;5013935;28;20191;-64
2023/06/08 07:51:55;;;;;;;8.77;4.13;;;;;;;;;;5014377;28;20192;-63
2023/06/08 07:54:24;;;;;;;6.87;3.83;;;;;;;;;;4996385;28;20203;-64
2023/06/08 07:56:51;;;;;;;4.50;3.90;;;;;;;;;;5008870;28;20649;-64
2023/06/08 07:59:17;;;;;;;6.03;3.80;;;;;;;;;;5013511;28;20212;-65
2023/06/08 08:01:44;;;;;;;6.23;3.80;;;;;;;;;;5014178;28;20224;-64
2023/06/08 08:04:11;;;;;;;9.00;4.00;;;;;;;;;;5014216;28;20279;-64
2023/06/08 08:06:38;;;;;;;6.23;3.97;;;;;;;;;;5014340;28;20194;-64
2023/06/08 08:09:05;;;;;;;8.17;4.13;;;;;;;;;;5013801;28;20188;-64
2023/06/08 08:11:32;;;;;;;5.70;3.97;;;;;;;;;;5013572;28;20197;-64
2023/06/08 08:13:59;;;;;;;6.00;3.70;;;;;;;;;;5014324;28;20222;-65
2023/06/08 08:16:26;;;;;;;6.77;3.90;;;;;;;;;;5008966;28;20233;-65
2023/06/08 08:18:53;;;;;;;5.27;3.80;;;;;;;;;;5039016;28;20273;-65
2023/06/08 08:21:20;;;;;;;6.20;4.00;;;;;;;;;;5041246;28;20182;-66
2023/06/08 08:23:48;;;;;;;5.17;3.80;;;;;;;;;;5028417;28;20194;-65
2023/06/08 08:26:15;;;;;;;5.77;4.00;;;;;;;;;;5036404;28;20196;-66
2023/06/08 08:28:44;;;;;;;7.07;4.23;;;;;;;;;;5037739;28;20582;-66
2023/06/08 08:31:12;;;;;;;6.63;4.03;;;;;;;;;;5024954;28;20233;-66
2023/06/08 08:33:39;;;;;;;6.83;3.80;;;;;;;;;;5041979;28;20273;-66
2023/06/08 08:36:06;;;;;;;8.60;4.07;;;;;;;;;;5039975;28;20579;-66
2023/06/08 08:38:33;;;;;;;9.10;3.70;;;;;;;;;;5038050;28;20196;-66
2023/06/08 08:41:04;;;;;;;7.80;4.13;;;;;;;;;;5035400;28;20706;-67
2023/06/08 08:43:44;;;;;;;5.27;3.97;;;;;;;;;;5043748;28;20195;-66
2023/06/08 08:46:11;;;;;;;5.77;3.87;;;;;;;;;;5021749;28;20187;-66
2023/06/08 08:48:41;;;;;;;6.93;3.90;;;;;;;;;;5023505;28;20616;-66
2023/06/08 08:51:09;;;;;;;6.57;3.80;;;;;;;;;;5020711;28;20198;-69
2023/06/08 08:53:36;;;;;;;6.50;4.07;;;;;;;;;;5036184;28;20439;-70
2023/06/08 08:56:03;;;;;;;5.93;4.00;;;;;;;;;;5045326;28;20681;-66
2023/06/08 08:58:30;;;;;;;7.90;4.20;;;;;;;;;;5044963;28;20198;-66
2023/06/08 09:00:57;;;;;;;5.40;3.87;;;;;;;;;;5033968;28;20242;-67
2023/06/08 09:03:42;;;;;;;6.27;3.57;;;;;;;;;;5034841;28;20250;-66
2023/06/08 09:06:09;;;;;;;4.83;3.73;;;;;;;;;;5021886;28;20229;-66
2023/06/08 09:08:39;;;;;;;6.30;3.57;;;;;;;;;;5034725;28;20194;-67
2023/06/08 09:11:09;;;;;;;5.43;3.67;;;;;;;;;;5039913;28;20638;-66
2023/06/08 09:13:36;;;;;;;6.93;3.67;;;;;;;;;;5036809;28;20309;-67
2023/06/08 09:16:14;;;;;;;4.70;3.50;;;;;;;;;;5002371;28;20229;-67
2023/06/08 09:18:41;;;;;;;5.50;3.33;;;;;;;;;;5041613;28;20240;-67
2023/06/08 09:21:21;;;;;;;9.20;3.90;;;;;;;;;;5030117;28;20278;-64
2023/06/08 09:24:07;;;;;;;4.80;3.67;;;;;;;;;;5025396;28;20196;-66
2023/06/08 09:26:45;;;;;;;4.70;3.50;;;;;;;;;;5029917;28;20195;-66
2023/06/08 09:29:28;;;;;;;6.03;3.67;;;;;;;;;;5038832;28;20199;-68
2023/06/08 09:31:55;;;;;;;4.23;3.43;;;;;;;;;;5019224;28;20191;-72
2023/06/08 09:34:22;;;;;;;5.87;3.73;;;;;;;;;;5015234;28;20258;-59
2023/06/08 09:36:49;;;;;;;5.37;3.50;;;;;;;;;;5045058;28;20195;-58
2023/06/08 09:39:16;;;;;;;4.93;3.47;;;;;;;;;;5021534;28;20292;-58
2023/06/08 09:41:54;;;;;;;4.40;3.37;;;;;;;;;;5020061;28;20199;-59
2023/06/08 09:44:39;;;;;;;5.90;3.33;;;;;;;;;;5029566;28;20261;-59
2023/06/08 09:47:22;;;;;;;6.47;3.47;;;;;;;;;;5042761;28;20179;-58
2023/06/08 09:50:07;;;;;;;4.80;3.63;;;;;;;;;;5045225;28;20895;-58
2023/06/08 09:52:35;;;;;;;5.77;3.37;;;;;;;;;;5030606;28;20255;-59
2023/06/08 09:55:02;;;;;;;6.50;3.60;;;;;;;;;;5036322;28;20199;-58
2023/06/08 09:57:32;;;;;;;6.43;3.57;;;;;;;;;;5039138;28;20195;-59
2023/06/08 10:00:23;;;;;;;6.60;4.07;;;;;;;;;;5044422;28;20253;-59
2023/06/08 10:02:50;;;;;;;5.33;3.43;;;;;;;;;;5019768;28;20597;-59
2023/06/08 10:05:17;;;;;;;4.30;3.37;;;;;;;;;;5040598;28;20196;-59
2023/06/08 10:07:47;;;;;;;7.80;3.67;;;;;;;;;;5009029;28;20220;-59
2023/06/08 10:10:34;;;;;;;21.07;4.20;;;;;;;;;;5039137;28;20173;-59
2023/06/08 10:13:02;;;;;;;5.93;3.97;;;;;;;;;;5036835;28;20576;-58
2023/06/08 10:15:29;;;;;;;6.00;3.30;;;;;;;;;;5008027;28;20234;-58
2023/06/08 10:17:56;;;;;;;9.00;4.13;;;;;;;;;;4982016;28;20191;-57
2023/06/08 10:20:23;;;;;;;15.20;4.13;;;;;;;;;;5017463;28;20244;-57
2023/06/08 10:22:51;;;;;;;6.03;3.40;;;;;;;;;;5009167;28;20205;-59
2023/06/08 10:25:18;;;;;;;5.57;3.47;;;;;;;;;;4984237;28;20193;-59
2023/06/08 10:27:50;;;;;;;4.13;3.37;;;;;;;;;;5015759;28;20200;-58
2023/06/08 10:30:27;;;;;;;9.27;3.60;;;;;;;;;;5025935;28;20223;-59
2023/06/08 10:32:55;;;;;;;5.30;3.30;;;;;;;;;;5014988;28;20803;-58
2023/06/08 10:35:22;;;;;;;5.13;3.70;;;;;;;;;;5019844;28;20239;-58
2023/06/08 10:37:48;;;;;;;8.53;3.73;;;;;;;;;;5016175;28;20282;-59
2023/06/08 10:40:16;;;;;;;6.30;3.70;;;;;;;;;;5022573;28;20215;-59
2023/06/08 10:42:55;;;;;;;6.60;4.00;;;;;;;;;;4995994;28;20191;-58
2023/06/08 10:45:45;;;;;;;5.07;4.37;;;;;;;;;;4999583;28;20681;-58
2023/06/08 10:48:15;;;;;;;8.10;4.00;;;;;;;;;;5025406;28;20190;-58
2023/06/08 10:50:42;;;;;;;5.30;4.00;;;;;;;;;;4997354;28;20559;-58
2023/06/08 10:53:09;;;;;;;5.33;3.93;;;;;;;;;;5019564;28;20189;-58
2023/06/08 10:55:36;;;;;;;6.30;4.13;;;;;;;;;;4994131;28;20962;-57
2023/06/08 10:58:06;;;;;;;5.67;3.70;;;;;;;;;;4996436;28;20192;-57
2023/06/08 11:00:33;;;;;;;4.70;3.67;;;;;;;;;;5024872;28;20301;-59
2023/06/08 11:03:04;;;;;;;6.90;4.03;;;;;;;;;;5014549;28;20205;-57
2023/06/08 11:05:31;;;;;;;6.40;4.10;;;;;;;;;;5018255;28;20705;-58
2023/06/08 11:08:00;;;;;;;10.70;4.13;;;;;;;;;;5023155;28;20669;-58
2023/06/08 11:10:27;;;;;;;6.03;4.23;;;;;;;;;;5019578;28;20299;-58
2023/06/08 11:12:54;;;;;;;4.30;3.90;;;;;;;;;;5023010;28;20733;-58
2023/06/08 11:15:24;;;;;;;5.23;3.90;;;;;;;;;;5014105;28;20230;-58
2023/06/08 11:17:55;;;;;;;6.13;4.10;;;;;;;;;;5028896;28;20179;-58
2023/06/08 11:20:25;;;;;;;6.20;4.13;;;;;;;;;;5015339;28;20216;-58
2023/06/08 11:22:52;;;;;;;4.73;3.70;;;;;;;;;;5027510;28;20275;-58
2023/06/08 11:25:22;;;;;;;6.13;3.80;;;;;;;;;;5017272;28;20199;-58
2023/06/08 11:27:55;;;;;;;5.67;3.83;;;;;;;;;;5016292;28;20683;-58
2023/06/08 11:30:24;;;;;;;6.73;4.00;;;;;;;;;;5028819;28;20535;-58
2023/06/08 11:32:51;;;;;;;5.40;4.03;;;;;;;;;;5028244;28;20208;-58
2023/06/08 11:35:19;;;;;;;6.93;3.87;;;;;;;;;;5028301;28;20191;-58
2023/06/08 11:37:48;;;;;;;9.33;4.40;;;;;;;;;;5028898;28;20963;-58
2023/06/08 11:40:15;;;;;;;5.27;4.13;;;;;;;;;;5010550;28;20206;-59
2023/06/08 11:42:42;;;;;;;5.77;3.90;;;;;;;;;;5009111;28;20191;-58
2023/06/08 11:45:09;;;;;;;6.17;4.37;;;;;;;;;;5028519;28;20705;-58
2023/06/08 11:47:36;;;;;;;5.33;4.27;;;;;;;;;;5028383;28;20914;-58
2023/06/08 11:50:03;;;;;;;5.37;3.97;;;;;;;;;;5011002;28;20202;-58
2023/06/08 11:52:33;;;;;;;6.03;3.87;;;;;;;;;;5028627;28;20187;-58
2023/06/08 11:55:13;;;;;;;4.83;4.10;;;;;;;;;;5028736;28;20192;-58
2023/06/08 11:57:42;;;;;;;6.37;4.17;;;;;;;;;;5009258;28;20198;-59
2023/06/08 12:00:21;;;;;;;7.10;4.80;;;;;;;;;;5020172;28;20586;-58
2023/06/08 12:02:48;;;;;;;7.50;5.33;;;;;;;;;;4998370;28;20282;-59
2023/06/08 12:05:16;;;;;;;13.10;7.10;;;;;;;;;;5028151;28;20187;-59
2023/06/08 12:07:55;;;;;;;11.17;5.77;;;;;;;;;;5030740;28;20198;-58
2023/06/08 12:10:22;;;;;;;6.70;4.40;;;;;;;;;;5023296;28;20203;-58
2023/06/08 12:12:49;;;;;;;4.83;4.20;;;;;;;;;;5031412;28;20231;-58
2023/06/08 12:15:19;;;;;;;8.13;5.70;;;;;;;;;;5006316;28;20682;-58
2023/06/08 12:17:46;;;;;;;11.13;5.17;;;;;;;;;;4999519;28;20256;-58
2023/06/08 12:20:16;;;;;;;20.80;13.10;;;;;;;;;;5029119;28;20183;-58
2023/06/08 12:22:43;;;;;;;10.97;8.70;;;;;;;;;;5000560;28;20190;-58
2023/06/08 12:25:10;;;;;;;12.40;8.73;;;;;;;;;;5027845;28;20190;-58
2023/06/08 12:27:39;;;;;;;5.87;3.97;;;;;;;;;;5031422;28;20200;-57
2023/06/08 12:30:07;;;;;;;6.83;5.03;;;;;;;;;;5031714;28;20249;-57
2023/06/08 12:32:52;;;;;;;5.60;4.23;;;;;;;;;;5001353;28;20246;-57
2023/06/08 12:35:20;;;;;;;5.30;4.23;;;;;;;;;;5031311;28;20218;-57
2023/06/08 12:37:49;;;;;;;7.77;4.27;;;;;;;;;;5031512;28;20194;-57
2023/06/08 12:40:16;;;;;;;8.37;4.20;;;;;;;;;;5031363;28;20184;-57
2023/06/08 12:42:46;;;;;;;5.73;4.20;;;;;;;;;;5031213;28;20180;-58
2023/06/08 12:45:13;;;;;;;5.90;3.87;;;;;;;;;;5031311;28;20184;-57
2023/06/08 12:47:40;;;;;;;4.67;4.10;;;;;;;;;;5024348;28;20546;-57
2023/06/08 12:50:08;;;;;;;4.87;4.10;;;;;;;;;;5030880;28;20191;-59
2023/06/08 12:52:52;;;;;;;5.07;4.40;;;;;;;;;;5007025;28;20194;-68
2023/06/08 12:55:19;;;;;;;5.87;4.40;;;;;;;;;;5021655;28;20202;-68
2023/06/08 12:57:47;;;;;;;5.43;3.70;;;;;;;;;;5013857;28;20199;-66
2023/06/08 13:00:14;;;;;;;5.27;3.70;;;;;;;;;;5022585;28;20199;-66
2023/06/08 13:02:41;;;;;;;6.30;3.90;;;;;;;;;;5017399;28;20223;-66
2023/06/08 13:05:09;;;;;;;4.23;3.83;;;;;;;;;;5013205;28;20205;-66
2023/06/08 13:07:36;;;;;;;4.90;3.87;;;;;;;;;;5026285;28;20186;-67
2023/06/08 13:10:02;;;;;;;5.47;4.10;;;;;;;;;;5021574;28;20191;-66
2023/06/08 13:12:48;;;;;;;5.07;3.90;;;;;;;;;;5004733;28;20223;-66
2023/06/08 13:15:15;;;;;;;6.03;3.87;;;;;;;;;;5015493;28;20286;-67
2023/06/08 13:17:42;;;;;;;6.33;4.20;;;;;;;;;;5006591;28;20231;-67
2023/06/08 13:20:09;;;;;;;4.67;4.17;;;;;;;;;;5025619;28;20523;-67
2023/06/08 13:22:37;;;;;;;5.80;3.77;;;;;;;;;;5014284;28;20277;-67
2023/06/08 13:25:05;;;;;;;7.03;4.00;;;;;;;;;;5005472;28;20196;-67
2023/06/08 13:27:32;;;;;;;4.93;3.70;;;;;;;;;;5015191;28;20194;-67
2023/06/08 13:29:58;;;;;;;5.00;3.83;;;;;;;;;;5004078;28;20200;-67
2023/06/08 13:32:27;;;;;;;4.50;3.80;;;;;;;;;;5024036;28;20200;-65
2023/06/08 13:34:55;;;;;;;5.70;4.10;;;;;;;;;;5027794;28;20190;-68
2023/06/08 13:37:22;;;;;;;5.53;3.80;;;;;;;;;;5026028;28;20190;-67
2023/06/08 13:39:50;;;;;;;5.53;3.77;;;;;;;;;;5027769;28;20538;-65
2023/06/08 13:42:17;;;;;;;7.03;4.10;;;;;;;;;;5016407;28;20795;-68
2023/06/08 13:44:47;;;;;;;6.00;4.30;;;;;;;;;;5027991;28;20192;-71
2023/06/08 13:47:14;;;;;;;4.93;4.10;;;;;;;;;;5025449;28;20218;-71
2023/06/08 13:49:45;;;;;;;5.07;3.90;;;;;;;;;;5007337;28;20196;-71
2023/06/08 13:52:12;;;;;;;7.87;3.70;;;;;;;;;;5014092;28;20192;-68
2023/06/08 13:54:39;;;;;;;5.67;3.37;;;;;;;;;;4995327;28;20707;-71
2023/06/08 13:57:06;;;;;;;4.83;3.60;;;;;;;;;;5025666;28;20189;-64
2023/06/08 13:59:34;;;;;;;5.23;3.70;;;;;;;;;;5018906;28;20705;-64
2023/06/08 14:02:01;;;;;;;5.77;3.47;;;;;;;;;;5015524;28;20611;-67
2023/06/08 14:04:30;;;;;;;4.37;3.70;;;;;;;;;;5026702;28;20301;-66
2023/06/08 14:06:57;;;;;;;6.63;3.70;;;;;;;;;;5009758;28;20203;-66
2023/06/08 14:09:24;;;;;;;6.97;3.90;;;;;;;;;;5026158;28;20186;-65
2023/06/08 14:11:51;;;;;;;4.37;3.60;;;;;;;;;;5014022;28;20204;-66
2023/06/08 14:14:18;;;;;;;5.33;3.73;;;;;;;;;;5023914;28;20241;-67
2023/06/08 14:16:47;;;;;;;5.77;3.47;;;;;;;;;;4987379;28;20697;-64
2023/06/08 14:19:14;;;;;;;5.67;3.40;;;;;;;;;;5019475;28;20595;-65
2023/06/08 14:21:41;;;;;;;4.50;3.80;;;;;;;;;;5003864;28;20607;-65
2023/06/08 14:24:27;;;;;;;5.40;3.37;;;;;;;;;;4993125;28;20178;-66
2023/06/08 14:26:55;;;;;;;6.93;3.40;;;;;;;;;;5004295;28;20192;-68
2023/06/08 14:29:39;;;;;;;5.77;3.50;;;;;;;;;;5018587;28;20183;-67
2023/06/08 14:32:06;;;;;;;5.63;3.43;;;;;;;;;;5011802;28;20662;-66
2023/06/08 14:34:33;;;;;;;4.60;3.50;;;;;;;;;;4993218;28;20676;-66
2023/06/08 14:37:02;;;;;;;5.07;3.73;;;;;;;;;;5009838;28;20221;-65
2023/06/08 14:39:30;;;;;;;10.27;4.07;;;;;;;;;;5017690;28;20248;-65
2023/06/08 14:42:16;;;;;;;5.07;3.50;;;;;;;;;;5017634;28;20215;-65
2023/06/08 14:44:44;;;;;;;5.77;3.40;;;;;;;;;;5023717;28;20200;-66
2023/06/08 14:47:11;;;;;;;5.83;3.90;;;;;;;;;;5009682;28;20191;-66
2023/06/08 14:49:38;;;;;;;4.17;2.87;;;;;;;;;;5019119;28;20607;-67
2023/06/08 14:52:05;;;;;;;5.50;3.50;;;;;;;;;;5012141;28;20207;-67
2023/06/08 14:54:32;;;;;;;5.30;3.40;;;;;;;;;;5023388;28;20194;-66
2023/06/08 14:57:01;;;;;;;4.50;3.20;;;;;;;;;;5002484;28;20293;-66
2023/06/08 14:59:28;;;;;;;3.80;3.37;;;;;;;;;;5007248;28;20188;-67
2023/06/08 15:01:56;;;;;;;6.07;3.70;;;;;;;;;;5002261;28;20214;-65
2023/06/08 15:04:24;;;;;;;5.53;3.63;;;;;;;;;;5007703;28;20190;-65
2023/06/08 15:06:50;;;;;;;4.20;3.07;;;;;;;;;;5009523;28;20194;-67
2023/06/08 15:09:18;;;;;;;6.20;3.40;;;;;;;;;;5014840;28;20260;-68
2023/06/08 15:11:45;;;;;;;8.87;3.40;;;;;;;;;;4990471;28;20199;-68
2023/06/08 15:14:12;;;;;;;6.40;3.27;;;;;;;;;;5029225;28;20229;-65
2023/06/08 15:16:40;;;;;;;4.47;3.00;;;;;;;;;;5003516;28;20228;-66
2023/06/08 15:19:07;;;;;;;7.63;3.87;;;;;;;;;;5030001;28;20191;-66
2023/06/08 15:21:34;;;;;;;5.40;3.27;;;;;;;;;;5035000;28;20210;-66
2023/06/08 15:24:01;;;;;;;6.53;3.20;;;;;;;;;;5034376;28;20646;-65
2023/06/08 15:26:28;;;;;;;5.07;3.30;;;;;;;;;;5027056;28;20191;-66
2023/06/08 15:28:55;;;;;;;5.03;3.30;;;;;;;;;;5014818;28;20183;-65
2023/06/08 15:31:40;;;;;;;5.13;3.13;;;;;;;;;;5026723;28;20179;-65
2023/06/08 15:34:07;;;;;;;4.17;3.10;;;;;;;;;;5027546;28;20195;-65
2023/06/08 15:36:34;;;;;;;5.23;3.10;;;;;;;;;;5027786;28;20205;-65
2023/06/08 15:39:03;;;;;;;5.70;3.17;;;;;;;;;;5025566;28;20196;-64
2023/06/08 15:41:30;;;;;;;4.67;3.07;;;;;;;;;;5009896;28;20215;-64
2023/06/08 15:43:57;;;;;;;5.90;3.27;;;;;;;;;;5004717;28;20223;-65
2023/06/08 15:46:24;;;;;;;4.63;3.53;;;;;;;;;;5039286;28;20195;-66
2023/06/08 15:48:54;;;;;;;4.83;3.23;;;;;;;;;;5013931;28;20266;-66
2023/06/08 15:51:28;;;;;;;5.57;3.10;;;;;;;;;;5028008;28;20350;-66
2023/06/08 15:53:55;;;;;;;4.07;3.23;;;;;;;;;;5028836;28;20195;-65
2023/06/08 15:56:22;;;;;;;6.30;3.10;;;;;;;;;;5029892;28;20694;-65
2023/06/08 15:58:50;;;;;;;6.23;3.10;;;;;;;;;;5031243;28;20192;-65
2023/06/08 16:01:17;;;;;;;6.13;3.03;;;;;;;;;;5026574;28;20302;-66
2023/06/08 16:03:46;;;;;;;5.77;3.40;;;;;;;;;;5030945;28;20554;-65
2023/06/08 16:06:15;;;;;;;3.40;2.83;;;;;;;;;;5021046;28;20195;-66
2023/06/08 16:08:42;;;;;;;5.17;3.20;;;;;;;;;;5029252;28;20195;-69
2023/06/08 16:11:09;;;;;;;7.37;3.20;;;;;;;;;;5027474;28;20290;-67
2023/06/08 16:13:36;;;;;;;6.37;3.17;;;;;;;;;;5024726;28;20241;-65
2023/06/08 16:16:05;;;;;;;4.30;2.97;;;;;;;;;;5015717;28;20227;-65
2023/06/08 16:18:32;;;;;;;5.20;3.30;;;;;;;;;;5028823;28;20655;-66
2023/06/08 16:20:59;;;;;;;3.43;3.00;;;;;;;;;;5035218;28;20198;-66
2023/06/08 16:23:26;;;;;;;6.33;3.00;;;;;;;;;;5027891;28;20215;-66
2023/06/08 16:25:53;;;;;;;6.40;3.30;;;;;;;;;;5028255;28;20650;-63
2023/06/08 16:28:20;;;;;;;11.17;3.63;;;;;;;;;;5027705;28;20290;-63
2023/06/08 16:30:47;;;;;;;4.73;3.00;;;;;;;;;;5025981;28;20192;-63
2023/06/08 16:33:14;;;;;;;4.27;2.90;;;;;;;;;;5029118;28;20226;-63
2023/06/08 16:35:41;;;;;;;5.60;3.00;;;;;;;;;;5024891;28;20663;-63
2023/06/08 16:38:09;;;;;;;5.63;3.50;;;;;;;;;;5022252;28;20315;-63
2023/06/08 16:40:38;;;;;;;5.63;3.07;;;;;;;;;;5028948;28;20188;-63
2023/06/08 16:43:05;;;;;;;3.67;2.97;;;;;;;;;;5028869;28;20223;-63
2023/06/08 16:45:32;;;;;;;5.77;3.20;;;;;;;;;;5028206;28;20206;-63
2023/06/08 16:48:00;;;;;;;6.77;3.60;;;;;;;;;;5029921;28;20719;-62
2023/06/08 16:50:29;;;;;;;4.17;3.20;;;;;;;;;;5010211;28;20195;-63
2023/06/08 16:52:56;;;;;;;3.60;2.97;;;;;;;;;;5028039;28;20261;-66
2023/06/08 16:55:23;;;;;;;4.97;3.03;;;;;;;;;;5033525;28;20195;-65
2023/06/08 16:57:50;;;;;;;7.47;3.50;;;;;;;;;;5025876;28;20528;-64
2023/06/08 17:00:17;;;;;;;4.93;3.30;;;;;;;;;;5013624;28;20201;-64
2023/06/08 17:02:44;;;;;;;3.87;3.20;;;;;;;;;;5030294;28;20262;-63
2023/06/08 17:05:12;;;;;;;4.13;3.10;;;;;;;;;;5026068;28;20208;-64
2023/06/08 17:07:39;;;;;;;5.10;2.90;;;;;;;;;;5025116;28;20205;-64
2023/06/08 17:10:07;;;;;;;7.63;3.80;;;;;;;;;;5021442;28;20559;-64
2023/06/08 17:12:34;;;;;;;4.53;3.00;;;;;;;;;;5026167;28;20241;-64
2023/06/08 17:15:02;;;;;;;5.73;3.23;;;;;;;;;;5027530;28;20209;-64
2023/06/08 17:17:29;;;;;;;4.03;3.10;;;;;;;;;;5015501;28;20221;-65
2023/06/08 17:19:56;;;;;;;4.70;3.43;;;;;;;;;;5027824;28;20187;-64
2023/06/08 17:22:26;;;;;;;4.83;3.20;;;;;;;;;;5028678;28;20263;-65
2023/06/08 17:24:56;;;;;;;5.53;2.97;;;;;;;;;;5036879;28;20180;-67
2023/06/08 17:27:23;;;;;;;8.67;3.30;;;;;;;;;;5025211;28;20192;-66
2023/06/08 17:29:50;;;;;;;6.83;3.50;;;;;;;;;;5029425;28;20245;-65
2023/06/08 17:32:17;;;;;;;7.23;3.40;;;;;;;;;;5026215;28;20767;-65
2023/06/08 17:34:45;;;;;;;5.70;3.30;;;;;;;;;;5032995;28;20201;-64
2023/06/08 17:37:11;;;;;;;12.53;4.37;;;;;;;;;;5029520;28;20263;-66
2023/06/08 17:39:56;;;;;;;6.43;3.23;;;;;;;;;;5014910;28;20188;-67
2023/06/08 17:42:23;;;;;;;11.90;4.27;;;;;;;;;;5009043;28;20218;-64
2023/06/08 17:44:50;;;;;;;6.70;3.30;;;;;;;;;;5022506;28;20189;-67
2023/06/08 17:47:17;;;;;;;6.13;3.00;;;;;;;;;;5003484;28;20755;-68
2023/06/08 17:49:44;;;;;;;9.60;3.40;;;;;;;;;;5024961;28;20193;-67
2023/06/08 17:52:11;;;;;;;7.40;3.40;;;;;;;;;;5025085;28;20833;-67
2023/06/08 17:54:38;;;;;;;3.80;2.97;;;;;;;;;;5026787;28;20456;-66
2023/06/08 17:57:05;;;;;;;4.10;2.97;;;;;;;;;;5023532;28;20713;-67
2023/06/08 17:59:32;;;;;;;4.87;3.33;;;;;;;;;;5028273;28;20188;-68
2023/06/08 18:01:59;;;;;;;7.33;3.30;;;;;;;;;;5017932;28;20895;-60
2023/06/08 18:04:26;;;;;;;4.77;3.10;;;;;;;;;;5026473;28;20196;-60
2023/06/08 18:06:54;;;;;;;6.17;3.10;;;;;;;;;;5013504;28;20246;-59
2023/06/08 18:09:24;;;;;;;6.60;3.20;;;;;;;;;;5023413;28;20198;-60
2023/06/08 18:11:52;;;;;;;5.47;2.87;;;;;;;;;;5026972;28;20215;-59
2023/06/08 18:14:19;;;;;;;4.70;3.47;;;;;;;;;;5007090;28;21066;-59
2023/06/08 18:16:47;;;;;;;4.53;3.20;;;;;;;;;;4998027;28;20286;-59
2023/06/08 18:19:15;;;;;;;5.83;3.00;;;;;;;;;;5007132;28;20267;-59
2023/06/08 18:21:42;;;;;;;4.27;2.90;;;;;;;;;;5011880;28;20195;-59
2023/06/08 18:24:09;;;;;;;5.73;3.10;;;;;;;;;;5005399;28;20188;-61
2023/06/08 18:26:36;;;;;;;8.47;3.57;;;;;;;;;;5009724;28;20290;-59
2023/06/08 18:29:03;;;;;;;4.53;2.93;;;;;;;;;;5008775;28;20203;-59
2023/06/08 18:31:32;;;;;;;4.50;3.27;;;;;;;;;;5008444;28;20270;-59
2023/06/08 18:33:59;;;;;;;4.70;3.07;;;;;;;;;;5009692;28;20212;-58
2023/06/08 18:36:26;;;;;;;7.80;3.30;;;;;;;;;;5009700;28;20259;-59
2023/06/08 18:38:54;;;;;;;7.83;3.43;;;;;;;;;;5008773;28;20616;-59
2023/06/08 18:41:22;;;;;;;7.20;3.60;;;;;;;;;;5001265;28;20254;-61
2023/06/08 18:43:50;;;;;;;11.57;4.40;;;;;;;;;;5007188;28;20406;-59
2023/06/08 18:46:17;;;;;;;6.30;3.20;;;;;;;;;;5009588;28;20200;-59
2023/06/08 18:48:45;;;;;;;4.70;3.70;;;;;;;;;;5007038;28;20275;-59
2023/06/08 18:51:12;;;;;;;9.20;4.03;;;;;;;;;;5008454;28;20200;-60
2023/06/08 18:53:39;;;;;;;7.20;3.30;;;;;;;;;;5004863;28;20192;-62
2023/06/08 18:56:06;;;;;;;5.40;3.40;;;;;;;;;;5007012;28;20206;-59
2023/06/08 18:58:33;;;;;;;4.47;3.30;;;;;;;;;;5008800;28;20196;-59
2023/06/08 19:01:00;;;;;;;7.13;3.57;;;;;;;;;;5009402;28;20200;-60
2023/06/08 19:03:28;;;;;;;6.57;3.47;;;;;;;;;;5002538;28;20219;-58
2023/06/08 19:05:55;;;;;;;6.50;3.50;;;;;;;;;;4994287;28;20216;-59
2023/06/08 19:08:22;;;;;;;7.23;3.23;;;;;;;;;;5008744;28;20196;-59
2023/06/08 19:10:49;;;;;;;5.13;3.27;;;;;;;;;;4996683;28;20203;-58
2023/06/08 19:13:16;;;;;;;5.77;3.27;;;;;;;;;;4997531;28;20237;-60
2023/06/08 19:16:05;;;;;;;5.33;2.63;;;;;;;;;;5001649;28;20249;-67
2023/06/08 19:18:35;;;;;;;6.43;3.20;;;;;;;;;;4992287;28;20199;-66
2023/06/08 19:21:03;;;;;;;11.27;3.37;;;;;;;;;;5028059;28;20206;-65
2023/06/08 19:23:30;;;;;;;7.97;3.50;;;;;;;;;;5026449;28;20226;-65
2023/06/08 19:25:57;;;;;;;8.87;3.37;;;;;;;;;;5029272;28;20192;-66
2023/06/08 19:28:24;;;;;;;5.53;3.30;;;;;;;;;;5026952;28;20183;-65
2023/06/08 19:30:51;;;;;;;16.50;4.13;;;;;;;;;;5014452;28;20318;-67
2023/06/08 19:33:35;;;;;;;7.20;3.40;;;;;;;;;;5021481;28;20184;-68
2023/06/08 19:36:02;;;;;;;6.13;3.57;;;;;;;;;;5015408;28;20262;-68
2023/06/08 19:38:29;;;;;;;7.27;3.33;;;;;;;;;;5022398;28;20194;-66
2023/06/08 19:40:57;;;;;;;6.33;3.60;;;;;;;;;;5011249;28;21027;-67
2023/06/08 19:43:24;;;;;;;11.23;3.73;;;;;;;;;;5028603;28;20226;-68
2023/06/08 19:45:51;;;;;;;8.20;3.70;;;;;;;;;;5048807;28;20233;-70
2023/06/08 19:48:18;;;;;;;6.90;3.63;;;;;;;;;;5048562;28;20226;-67
2023/06/08 19:50:45;;;;;;;7.90;3.80;;;;;;;;;;5034186;28;20254;-69
2023/06/08 19:53:29;;;;;;;6.77;3.50;;;;;;;;;;5006623;28;20180;-67
2023/06/08 19:55:56;;;;;;;6.63;3.87;;;;;;;;;;5030626;28;20202;-67
2023/06/08 19:58:30;;;;;;;7.43;3.40;;;;;;;;;;5008963;28;20230;-67
2023/06/08 20:00:57;;;;;;;40.27;5.87;;;;;;;;;;5009413;28;20207;-69
2023/06/08 20:03:26;;;;;;;24.53;5.17;;;;;;;;;;5025313;28;20215;-67
2023/06/08 20:05:53;;;;;;;17.63;4.50;;;;;;;;;;5010472;28;20198;-67
2023/06/08 20:08:20;;;;;;;16.50;4.63;;;;;;;;;;5012501;28;20188;-67
2023/06/08 20:10:56;;;;;;;11.47;4.43;;;;;;;;;;5006207;28;20951;-67
2023/06/08 20:13:25;;;;;;;8.83;3.90;;;;;;;;;;5010869;28;20224;-67
2023/06/08 20:15:53;;;;;;;6.87;3.90;;;;;;;;;;5018323;28;20592;-68
2023/06/08 20:18:21;;;;;;;10.97;4.07;;;;;;;;;;5016728;28;20717;-67
2023/06/08 20:20:49;;;;;;;11.27;4.00;;;;;;;;;;5028511;28;20278;-67
2023/06/08 20:23:33;;;;;;;9.37;4.00;;;;;;;;;;5007504;28;20216;-67
2023/06/08 20:26:00;;;;;;;5.93;3.70;;;;;;;;;;4991355;28;20182;-67
2023/06/08 20:28:29;;;;;;;10.53;3.87;;;;;;;;;;5019655;28;20195;-67
2023/06/08 20:30:56;;;;;;;6.47;3.67;;;;;;;;;;5023608;28;20195;-67
2023/06/08 20:33:23;;;;;;;6.80;3.53;;;;;;;;;;5024272;28;20199;-67
2023/06/08 20:35:50;;;;;;;7.47;3.80;;;;;;;;;;5031612;28;20195;-67
2023/06/08 20:38:17;;;;;;;10.90;4.30;;;;;;;;;;5014574;28;20199;-67
2023/06/08 20:40:43;;;;;;;7.30;3.93;;;;;;;;;;5032417;28;20666;-67
2023/06/08 20:43:10;;;;;;;5.77;3.70;;;;;;;;;;5017977;28;20922;-67
2023/06/08 20:45:38;;;;;;;8.17;4.07;;;;;;;;;;5031663;28;20191;-67
2023/06/08 20:48:06;;;;;;;6.10;3.80;;;;;;;;;;5021059;28;20682;-68
2023/06/08 20:50:33;;;;;;;7.03;3.87;;;;;;;;;;5024804;28;20546;-67
2023/06/08 20:53:00;;;;;;;10.13;3.77;;;;;;;;;;5010656;28;20204;-67
2023/06/08 20:55:28;;;;;;;6.67;3.80;;;;;;;;;;5011882;28;20561;-67
2023/06/08 20:57:55;;;;;;;7.10;3.50;;;;;;;;;;5012319;28;20261;-67
2023/06/08 21:00:24;;;;;;;7.93;4.30;;;;;;;;;;5029238;28;20274;-67
2023/06/08 21:02:52;;;;;;;8.17;3.83;;;;;;;;;;5031172;28;20214;-67
2023/06/08 21:05:19;;;;;;;7.10;3.83;;;;;;;;;;5031313;28;20187;-67
2023/06/08 21:07:46;;;;;;;18.47;4.70;;;;;;;;;;5031587;28;20202;-67
2023/06/08 21:10:14;;;;;;;11.03;4.20;;;;;;;;;;5030233;28;20196;-67
2023/06/08 21:12:42;;;;;;;8.13;3.70;;;;;;;;;;5031349;28;20223;-67
2023/06/08 21:15:08;;;;;;;14.57;4.93;;;;;;;;;;5031363;28;20570;-67
2023/06/08 21:17:36;;;;;;;39.63;7.53;;;;;;;;;;5012960;28;20211;-67
2023/06/08 21:20:20;;;;;;;34.53;6.57;;;;;;;;;;5011504;28;20210;-67
2023/06/08 21:22:46;;;;;;;25.60;5.53;;;;;;;;;;5011614;28;20211;-67
2023/06/08 21:25:31;;;;;;;14.67;4.50;;;;;;;;;;5011576;28;20226;-67
2023/06/08 21:27:58;;;;;;;14.10;4.40;;;;;;;;;;5011170;28;20196;-67
2023/06/08 21:30:42;;;;;;;7.53;4.00;;;;;;;;;;5011340;28;20187;-67
2023/06/08 21:33:08;;;;;;;8.03;4.10;;;;;;;;;;5026113;28;20271;-67
2023/06/08 21:35:38;;;;;;;5.87;4.10;;;;;;;;;;5030587;28;20253;-67
2023/06/08 21:38:05;;;;;;;8.60;4.60;;;;;;;;;;5030939;28;20183;-68
2023/06/08 21:40:32;;;;;;;7.27;4.00;;;;;;;;;;5031159;28;20278;-67
2023/06/08 21:42:59;;;;;;;6.47;3.90;;;;;;;;;;5030640;28;20212;-67
2023/06/08 21:45:25;;;;;;;7.87;4.17;;;;;;;;;;5030813;28;20270;-67
2023/06/08 21:47:53;;;;;;;6.63;4.47;;;;;;;;;;5023568;28;20197;-69
2023/06/08 21:50:24;;;;;;;7.43;4.23;;;;;;;;;;4993178;28;20200;-69
2023/06/08 21:52:53;;;;;;;9.07;4.00;;;;;;;;;;4994014;28;20207;-70
2023/06/08 21:55:21;;;;;;;6.70;4.00;;;;;;;;;;4993566;28;20275;-68
2023/06/08 21:57:48;;;;;;;5.47;3.87;;;;;;;;;;5010575;28;20196;-69
2023/06/08 22:00:15;;;;;;;7.13;3.70;;;;;;;;;;5010855;28;20259;-69
2023/06/08 22:02:42;;;;;;;6.57;3.70;;;;;;;;;;5010629;28;20623;-69
2023/06/08 22:05:08;;;;;;;6.20;3.87;;;;;;;;;;5028106;28;20194;-69